sensor_id;sensor_type;location;lat;lon;timestamp;temperature;humidity
45008;DHT22;30743;52.008;5.644;2022-10-28T00:01:08;21.80;99.90
45008;DHT22;30743;52.008;5.644;2022-10-28T00:03:45;21.80;99.90
45008;DHT22;30743;52.008;5.644;2022-10-28T00:06:17;21.80;99.90
45008;DHT22;30743;52.008;5.644;2022-10-28T00:08:43;21.80;99.90
45008;DHT22;30743;52.008;5.644;2022-10-28T00:11:12;21.80;99.90
45008;DHT22;30743;52.008;5.644;2022-10-28T00:13:38;21.80;99.90
45008;DHT22;30743;52.008;5.644;2022-10-28T00:16:09;21.80;99.90
45008;DHT22;30743;52.008;5.644;2022-10-28T00:18:35;21.80;99.90
45008;DHT22;30743;52.008;5.644;2022-10-28T00:21:04;21.80;99.90
45008;DHT22;30743;52.008;5.644;2022-10-28T00:23:30;21.80;99.90
45008;DHT22;30743;52.008;5.644;2022-10-28T00:26:02;21.90;99.90
45008;DHT22;30743;52.008;5.644;2022-10-28T00:28:27;21.90;99.90
45008;DHT22;30743;52.008;5.644;2022-10-28T00:30:53;21.90;99.90
45008;DHT22;30743;52.008;5.644;2022-10-28T00:33:18;21.90;99.90
45008;DHT22;30743;52.008;5.644;2022-10-28T00:35:44;21.90;99.90
45008;DHT22;30743;52.008;5.644;2022-10-28T00:38:09;21.80;99.90
45008;DHT22;30743;52.008;5.644;2022-10-28T00:40:35;21.80;99.90
45008;DHT22;30743;52.008;5.644;2022-10-28T00:43:00;21.70;99.90
45008;DHT22;30743;52.008;5.644;2022-10-28T00:45:26;21.80;99.90
45008;DHT22;30743;52.008;5.644;2022-10-28T00:47:56;21.70;99.90
45008;DHT22;30743;52.008;5.644;2022-10-28T00:53:12;21.80;99.90
45008;DHT22;30743;52.008;5.644;2022-10-28T00:55:38;21.80;99.90
45008;DHT22;30743;52.008;5.644;2022-10-28T00:58:05;21.70;99.90
45008;DHT22;30743;52.008;5.644;2022-10-28T01:00:32;21.90;99.90
45008;DHT22;30743;52.008;5.644;2022-10-28T01:02:58;21.70;99.90
45008;DHT22;30743;52.008;5.644;2022-10-28T01:05:26;21.60;99.90
45008;DHT22;30743;52.008;5.644;2022-10-28T01:07:54;21.60;99.90
45008;DHT22;30743;52.008;5.644;2022-10-28T01:10:27;21.50;99.90
45008;DHT22;30743;52.008;5.644;2022-10-28T01:13:23;21.30;99.90
45008;DHT22;30743;52.008;5.644;2022-10-28T01:15:58;21.10;99.90
45008;DHT22;30743;52.008;5.644;2022-10-28T01:21:37;21.10;99.90
45008;DHT22;30743;52.008;5.644;2022-10-28T01:24:42;20.80;99.90
45008;DHT22;30743;52.008;5.644;2022-10-28T01:30:12;20.80;99.90
45008;DHT22;30743;52.008;5.644;2022-10-28T01:38:30;20.40;99.90
45008;DHT22;30743;52.008;5.644;2022-10-28T01:41:13;20.50;99.90
45008;DHT22;30743;52.008;5.644;2022-10-28T01:44:05;20.60;99.90
45008;DHT22;30743;52.008;5.644;2022-10-28T01:49:50;20.50;99.90
45008;DHT22;30743;52.008;5.644;2022-10-28T01:52:21;20.50;99.90
45008;DHT22;30743;52.008;5.644;2022-10-28T01:54:52;20.60;99.90
45008;DHT22;30743;52.008;5.644;2022-10-28T01:57:19;20.80;99.90
45008;DHT22;30743;52.008;5.644;2022-10-28T01:59:47;20.70;99.90
45008;DHT22;30743;52.008;5.644;2022-10-28T02:02:17;20.90;99.90
45008;DHT22;30743;52.008;5.644;2022-10-28T02:04:43;21.00;99.90
45008;DHT22;30743;52.008;5.644;2022-10-28T02:07:08;21.10;99.90
45008;DHT22;30743;52.008;5.644;2022-10-28T02:09:56;21.10;99.90
45008;DHT22;30743;52.008;5.644;2022-10-28T02:12:28;21.00;99.90
45008;DHT22;30743;52.008;5.644;2022-10-28T02:15:02;20.80;99.90
45008;DHT22;30743;52.008;5.644;2022-10-28T02:20:50;20.80;99.90
45008;DHT22;30743;52.008;5.644;2022-10-28T02:26:03;20.60;99.90
45008;DHT22;30743;52.008;5.644;2022-10-28T02:28:41;20.70;99.90
45008;DHT22;30743;52.008;5.644;2022-10-28T02:31:23;20.60;99.90
45008;DHT22;30743;52.008;5.644;2022-10-28T02:33:53;20.50;99.90
45008;DHT22;30743;52.008;5.644;2022-10-28T02:36:22;20.40;99.90
45008;DHT22;30743;52.008;5.644;2022-10-28T02:38:52;20.30;99.90
45008;DHT22;30743;52.008;5.644;2022-10-28T02:43:49;20.30;99.90
45008;DHT22;30743;52.008;5.644;2022-10-28T02:46:18;20.30;99.90
45008;DHT22;30743;52.008;5.644;2022-10-28T02:48:57;20.20;99.90
45008;DHT22;30743;52.008;5.644;2022-10-28T02:51:36;20.20;99.90
45008;DHT22;30743;52.008;5.644;2022-10-28T02:54:10;20.30;99.90
45008;DHT22;30743;52.008;5.644;2022-10-28T02:56:41;20.30;99.90
45008;DHT22;30743;52.008;5.644;2022-10-28T02:59:11;20.30;99.90
45008;DHT22;30743;52.008;5.644;2022-10-28T03:01:37;20.30;99.90
45008;DHT22;30743;52.008;5.644;2022-10-28T03:04:04;20.30;99.90
45008;DHT22;30743;52.008;5.644;2022-10-28T03:06:29;20.40;99.90
45008;DHT22;30743;52.008;5.644;2022-10-28T03:08:55;20.50;99.90
45008;DHT22;30743;52.008;5.644;2022-10-28T03:11:20;20.50;99.90
45008;DHT22;30743;52.008;5.644;2022-10-28T03:13:46;20.50;99.90
45008;DHT22;30743;52.008;5.644;2022-10-28T03:16:12;20.60;99.90
45008;DHT22;30743;52.008;5.644;2022-10-28T03:18:37;20.70;99.90
45008;DHT22;30743;52.008;5.644;2022-10-28T03:21:03;20.80;99.90
45008;DHT22;30743;52.008;5.644;2022-10-28T03:23:28;20.80;99.90
45008;DHT22;30743;52.008;5.644;2022-10-28T03:25:54;20.70;99.90
45008;DHT22;30743;52.008;5.644;2022-10-28T03:28:19;20.80;99.90
45008;DHT22;30743;52.008;5.644;2022-10-28T03:30:45;20.80;99.90
45008;DHT22;30743;52.008;5.644;2022-10-28T03:33:10;20.70;99.90
45008;DHT22;30743;52.008;5.644;2022-10-28T03:35:36;20.60;99.90
45008;DHT22;30743;52.008;5.644;2022-10-28T03:38:01;20.60;99.90
45008;DHT22;30743;52.008;5.644;2022-10-28T03:40:27;20.60;99.90
45008;DHT22;30743;52.008;5.644;2022-10-28T03:42:53;20.50;99.90
45008;DHT22;30743;52.008;5.644;2022-10-28T03:45:18;20.50;99.90
45008;DHT22;30743;52.008;5.644;2022-10-28T03:47:44;20.60;99.90
45008;DHT22;30743;52.008;5.644;2022-10-28T03:50:09;20.60;99.90
45008;DHT22;30743;52.008;5.644;2022-10-28T03:52:35;20.70;99.90
45008;DHT22;30743;52.008;5.644;2022-10-28T03:55:00;20.70;99.90
45008;DHT22;30743;52.008;5.644;2022-10-28T03:57:29;20.60;99.90
45008;DHT22;30743;52.008;5.644;2022-10-28T03:59:55;20.60;99.90
45008;DHT22;30743;52.008;5.644;2022-10-28T04:02:21;20.60;99.90
45008;DHT22;30743;52.008;5.644;2022-10-28T04:04:46;20.60;99.90
45008;DHT22;30743;52.008;5.644;2022-10-28T04:07:12;20.50;99.90
45008;DHT22;30743;52.008;5.644;2022-10-28T04:09:37;20.40;99.90
45008;DHT22;30743;52.008;5.644;2022-10-28T04:12:03;20.20;99.90
45008;DHT22;30743;52.008;5.644;2022-10-28T04:14:29;20.20;99.90
45008;DHT22;30743;52.008;5.644;2022-10-28T04:16:55;20.10;99.90
45008;DHT22;30743;52.008;5.644;2022-10-28T04:19:20;20.30;99.90
45008;DHT22;30743;52.008;5.644;2022-10-28T04:21:46;20.20;99.90
45008;DHT22;30743;52.008;5.644;2022-10-28T04:24:11;20.30;99.90
45008;DHT22;30743;52.008;5.644;2022-10-28T04:26:37;20.20;99.90
45008;DHT22;30743;52.008;5.644;2022-10-28T04:29:02;20.10;99.90
45008;DHT22;30743;52.008;5.644;2022-10-28T04:31:27;20.00;99.90
45008;DHT22;30743;52.008;5.644;2022-10-28T04:33:53;19.90;99.90
45008;DHT22;30743;52.008;5.644;2022-10-28T04:36:18;19.90;99.90
45008;DHT22;30743;52.008;5.644;2022-10-28T04:38:44;19.70;99.90
45008;DHT22;30743;52.008;5.644;2022-10-28T04:41:13;19.60;99.90
45008;DHT22;30743;52.008;5.644;2022-10-28T04:43:39;19.80;99.90
45008;DHT22;30743;52.008;5.644;2022-10-28T04:46:05;20.00;99.90
45008;DHT22;30743;52.008;5.644;2022-10-28T04:48:34;20.00;99.90
45008;DHT22;30743;52.008;5.644;2022-10-28T04:50:59;20.10;99.90
45008;DHT22;30743;52.008;5.644;2022-10-28T04:53:25;20.00;99.90
45008;DHT22;30743;52.008;5.644;2022-10-28T04:55:50;20.00;99.90
45008;DHT22;30743;52.008;5.644;2022-10-28T04:58:17;19.90;99.90
45008;DHT22;30743;52.008;5.644;2022-10-28T05:00:42;20.00;99.90
45008;DHT22;30743;52.008;5.644;2022-10-28T05:03:08;20.10;99.90
45008;DHT22;30743;52.008;5.644;2022-10-28T05:05:33;20.00;99.90
45008;DHT22;30743;52.008;5.644;2022-10-28T05:07:59;20.00;99.90
45008;DHT22;30743;52.008;5.644;2022-10-28T05:10:24;20.10;99.90
45008;DHT22;30743;52.008;5.644;2022-10-28T05:12:50;20.20;99.90
45008;DHT22;30743;52.008;5.644;2022-10-28T05:15:16;20.20;99.90
45008;DHT22;30743;52.008;5.644;2022-10-28T05:17:45;20.10;99.90
45008;DHT22;30743;52.008;5.644;2022-10-28T05:20:12;20.10;99.90
45008;DHT22;30743;52.008;5.644;2022-10-28T05:22:44;20.10;99.90
45008;DHT22;30743;52.008;5.644;2022-10-28T05:25:10;20.00;99.90
45008;DHT22;30743;52.008;5.644;2022-10-28T05:27:36;19.90;99.90
45008;DHT22;30743;52.008;5.644;2022-10-28T05:30:02;19.80;99.90
45008;DHT22;30743;52.008;5.644;2022-10-28T05:32:27;19.70;99.90
45008;DHT22;30743;52.008;5.644;2022-10-28T05:34:53;19.90;99.90
45008;DHT22;30743;52.008;5.644;2022-10-28T05:37:18;19.70;99.90
45008;DHT22;30743;52.008;5.644;2022-10-28T05:39:44;19.70;99.90
45008;DHT22;30743;52.008;5.644;2022-10-28T05:42:09;19.60;99.90
45008;DHT22;30743;52.008;5.644;2022-10-28T05:44:35;19.60;99.90
45008;DHT22;30743;52.008;5.644;2022-10-28T05:47:00;19.70;99.90
45008;DHT22;30743;52.008;5.644;2022-10-28T05:49:26;19.60;99.90
45008;DHT22;30743;52.008;5.644;2022-10-28T05:51:51;19.60;99.90
45008;DHT22;30743;52.008;5.644;2022-10-28T05:54:17;19.70;99.90
45008;DHT22;30743;52.008;5.644;2022-10-28T05:56:42;19.50;99.90
45008;DHT22;30743;52.008;5.644;2022-10-28T05:59:08;19.50;99.90
45008;DHT22;30743;52.008;5.644;2022-10-28T06:01:33;19.60;99.90
45008;DHT22;30743;52.008;5.644;2022-10-28T06:03:59;19.70;99.90
45008;DHT22;30743;52.008;5.644;2022-10-28T06:06:24;19.70;99.90
45008;DHT22;30743;52.008;5.644;2022-10-28T06:08:51;19.70;99.90
45008;DHT22;30743;52.008;5.644;2022-10-28T06:11:17;19.70;99.90
45008;DHT22;30743;52.008;5.644;2022-10-28T06:13:42;19.60;99.90
45008;DHT22;30743;52.008;5.644;2022-10-28T06:16:08;19.60;99.90
45008;DHT22;30743;52.008;5.644;2022-10-28T06:18:33;19.70;99.90
45008;DHT22;30743;52.008;5.644;2022-10-28T06:20:59;19.80;99.90
45008;DHT22;30743;52.008;5.644;2022-10-28T06:23:26;19.60;99.90
45008;DHT22;30743;52.008;5.644;2022-10-28T06:26:00;19.60;99.90
45008;DHT22;30743;52.008;5.644;2022-10-28T06:28:26;19.70;99.90
45008;DHT22;30743;52.008;5.644;2022-10-28T06:30:52;19.80;99.90
45008;DHT22;30743;52.008;5.644;2022-10-28T06:33:18;19.80;99.90
45008;DHT22;30743;52.008;5.644;2022-10-28T06:35:43;19.80;99.90
45008;DHT22;30743;52.008;5.644;2022-10-28T06:38:10;19.70;99.90
45008;DHT22;30743;52.008;5.644;2022-10-28T06:40:35;19.70;99.90
45008;DHT22;30743;52.008;5.644;2022-10-28T06:43:03;19.70;99.90
45008;DHT22;30743;52.008;5.644;2022-10-28T06:45:30;19.70;99.90
45008;DHT22;30743;52.008;5.644;2022-10-28T06:47:57;19.70;99.90
45008;DHT22;30743;52.008;5.644;2022-10-28T06:50:24;19.80;99.90
45008;DHT22;30743;52.008;5.644;2022-10-28T06:52:49;19.60;99.90
45008;DHT22;30743;52.008;5.644;2022-10-28T06:55:15;19.70;99.90
45008;DHT22;30743;52.008;5.644;2022-10-28T06:57:40;19.60;99.90
45008;DHT22;30743;52.008;5.644;2022-10-28T07:00:06;19.60;99.90
45008;DHT22;30743;52.008;5.644;2022-10-28T07:02:32;19.60;99.90
45008;DHT22;30743;52.008;5.644;2022-10-28T07:04:57;19.60;99.90
45008;DHT22;30743;52.008;5.644;2022-10-28T07:07:23;19.70;99.90
45008;DHT22;30743;52.008;5.644;2022-10-28T07:09:48;19.80;99.90
45008;DHT22;30743;52.008;5.644;2022-10-28T07:12:14;19.80;99.90
45008;DHT22;30743;52.008;5.644;2022-10-28T07:14:39;19.90;99.90
45008;DHT22;30743;52.008;5.644;2022-10-28T07:17:05;19.90;99.90
45008;DHT22;30743;52.008;5.644;2022-10-28T07:19:30;20.00;99.90
45008;DHT22;30743;52.008;5.644;2022-10-28T07:21:56;20.00;99.90
45008;DHT22;30743;52.008;5.644;2022-10-28T07:24:21;20.00;99.90
45008;DHT22;30743;52.008;5.644;2022-10-28T07:26:47;20.10;99.90
45008;DHT22;30743;52.008;5.644;2022-10-28T07:29:16;20.00;99.90
45008;DHT22;30743;52.008;5.644;2022-10-28T07:31:42;20.10;99.90
45008;DHT22;30743;52.008;5.644;2022-10-28T07:34:07;20.20;99.90
45008;DHT22;30743;52.008;5.644;2022-10-28T07:36:33;20.20;99.90
45008;DHT22;30743;52.008;5.644;2022-10-28T07:38:58;20.20;99.90
45008;DHT22;30743;52.008;5.644;2022-10-28T07:41:24;20.10;99.90
45008;DHT22;30743;52.008;5.644;2022-10-28T07:43:50;20.20;99.90
45008;DHT22;30743;52.008;5.644;2022-10-28T07:46:16;20.40;99.90
45008;DHT22;30743;52.008;5.644;2022-10-28T07:48:42;20.50;99.90
45008;DHT22;30743;52.008;5.644;2022-10-28T07:51:11;20.70;99.90
45008;DHT22;30743;52.008;5.644;2022-10-28T07:53:37;20.90;99.90
45008;DHT22;30743;52.008;5.644;2022-10-28T07:56:06;21.00;99.90
45008;DHT22;30743;52.008;5.644;2022-10-28T07:58:34;21.10;99.90
45008;DHT22;30743;52.008;5.644;2022-10-28T08:01:05;21.20;99.90
45008;DHT22;30743;52.008;5.644;2022-10-28T08:03:31;21.10;99.90
45008;DHT22;30743;52.008;5.644;2022-10-28T08:06:06;21.60;99.90
45008;DHT22;30743;52.008;5.644;2022-10-28T08:08:32;22.20;99.90
45008;DHT22;30743;52.008;5.644;2022-10-28T08:10:58;22.40;99.90
45008;DHT22;30743;52.008;5.644;2022-10-28T08:13:23;22.50;99.90
45008;DHT22;30743;52.008;5.644;2022-10-28T08:15:53;22.60;99.90
45008;DHT22;30743;52.008;5.644;2022-10-28T08:18:19;22.40;99.90
45008;DHT22;30743;52.008;5.644;2022-10-28T08:20:45;22.40;99.90
45008;DHT22;30743;52.008;5.644;2022-10-28T08:23:10;22.30;99.90
45008;DHT22;30743;52.008;5.644;2022-10-28T08:25:36;22.20;99.90
45008;DHT22;30743;52.008;5.644;2022-10-28T08:28:01;22.00;99.90
45008;DHT22;30743;52.008;5.644;2022-10-28T08:30:27;22.00;99.90
45008;DHT22;30743;52.008;5.644;2022-10-28T08:32:54;21.90;99.90
45008;DHT22;30743;52.008;5.644;2022-10-28T08:35:20;22.00;99.90
45008;DHT22;30743;52.008;5.644;2022-10-28T08:37:51;21.90;99.90
45008;DHT22;30743;52.008;5.644;2022-10-28T08:40:18;22.00;99.90
45008;DHT22;30743;52.008;5.644;2022-10-28T08:42:48;22.30;99.90
45008;DHT22;30743;52.008;5.644;2022-10-28T08:45:22;22.60;99.90
45008;DHT22;30743;52.008;5.644;2022-10-28T08:50:29;22.90;99.90
45008;DHT22;30743;52.008;5.644;2022-10-28T08:53:18;23.10;99.90
45008;DHT22;30743;52.008;5.644;2022-10-28T08:55:46;23.30;99.90
45008;DHT22;30743;52.008;5.644;2022-10-28T08:58:24;23.70;99.90
45008;DHT22;30743;52.008;5.644;2022-10-28T09:00:53;23.60;99.90
45008;DHT22;30743;52.008;5.644;2022-10-28T09:03:24;23.60;99.90
45008;DHT22;30743;52.008;5.644;2022-10-28T09:06:01;24.10;99.90
45008;DHT22;30743;52.008;5.644;2022-10-28T09:08:29;24.20;99.90
45008;DHT22;30743;52.008;5.644;2022-10-28T09:13:38;25.70;99.90
45008;DHT22;30743;52.008;5.644;2022-10-28T09:18:54;27.00;99.90
45008;DHT22;30743;52.008;5.644;2022-10-28T09:21:32;27.20;99.90
45008;DHT22;30743;52.008;5.644;2022-10-28T09:24:02;27.20;99.90
45008;DHT22;30743;52.008;5.644;2022-10-28T09:30:02;27.50;99.90
45008;DHT22;30743;52.008;5.644;2022-10-28T09:35:22;27.00;99.90
45008;DHT22;30743;52.008;5.644;2022-10-28T09:37:52;26.90;99.90
45008;DHT22;30743;52.008;5.644;2022-10-28T09:40:28;26.60;99.90
45008;DHT22;30743;52.008;5.644;2022-10-28T09:43:10;26.60;99.90
45008;DHT22;30743;52.008;5.644;2022-10-28T09:45:43;26.30;99.90
45008;DHT22;30743;52.008;5.644;2022-10-28T09:48:18;26.00;99.90
45008;DHT22;30743;52.008;5.644;2022-10-28T09:50:44;26.00;99.90
45008;DHT22;30743;52.008;5.644;2022-10-28T09:53:35;26.10;99.90
45008;DHT22;30743;52.008;5.644;2022-10-28T09:56:03;25.90;99.90
45008;DHT22;30743;52.008;5.644;2022-10-28T09:58:34;25.50;99.90
45008;DHT22;30743;52.008;5.644;2022-10-28T10:01:01;25.20;99.90
45008;DHT22;30743;52.008;5.644;2022-10-28T10:03:27;25.00;99.90
45008;DHT22;30743;52.008;5.644;2022-10-28T10:05:55;25.30;99.90
45008;DHT22;30743;52.008;5.644;2022-10-28T10:08:23;25.40;99.90
45008;DHT22;30743;52.008;5.644;2022-10-28T10:11:00;25.70;99.90
45008;DHT22;30743;52.008;5.644;2022-10-28T10:13:29;26.00;99.90
45008;DHT22;30743;52.008;5.644;2022-10-28T10:16:01;26.10;99.90
45008;DHT22;30743;52.008;5.644;2022-10-28T10:18:30;26.50;99.90
45008;DHT22;30743;52.008;5.644;2022-10-28T10:20:58;26.90;99.90
45008;DHT22;30743;52.008;5.644;2022-10-28T10:23:38;28.00;99.90
45008;DHT22;30743;52.008;5.644;2022-10-28T10:26:11;27.40;99.90
45008;DHT22;30743;52.008;5.644;2022-10-28T10:28:46;27.40;99.90
45008;DHT22;30743;52.008;5.644;2022-10-28T10:31:21;27.40;99.90
45008;DHT22;30743;52.008;5.644;2022-10-28T10:33:49;27.80;99.90
45008;DHT22;30743;52.008;5.644;2022-10-28T10:36:17;27.90;99.90
45008;DHT22;30743;52.008;5.644;2022-10-28T10:38:55;28.20;99.90
45008;DHT22;30743;52.008;5.644;2022-10-28T10:41:35;28.40;99.90
45008;DHT22;30743;52.008;5.644;2022-10-28T10:46:46;28.00;99.90
45008;DHT22;30743;52.008;5.644;2022-10-28T10:49:13;27.80;99.90
45008;DHT22;30743;52.008;5.644;2022-10-28T10:51:50;27.70;99.90
45008;DHT22;30743;52.008;5.644;2022-10-28T10:54:16;27.50;99.90
45008;DHT22;30743;52.008;5.644;2022-10-28T10:56:42;27.90;99.90
45008;DHT22;30743;52.008;5.644;2022-10-28T10:59:22;28.00;99.90
45008;DHT22;30743;52.008;5.644;2022-10-28T11:01:50;27.80;99.90
45008;DHT22;30743;52.008;5.644;2022-10-28T11:04:18;27.50;99.90
45008;DHT22;30743;52.008;5.644;2022-10-28T11:06:48;27.70;99.90
45008;DHT22;30743;52.008;5.644;2022-10-28T11:09:28;27.90;99.90
45008;DHT22;30743;52.008;5.644;2022-10-28T11:11:55;27.70;99.90
45008;DHT22;30743;52.008;5.644;2022-10-28T11:14:25;28.00;99.90
45008;DHT22;30743;52.008;5.644;2022-10-28T11:16:53;28.50;99.90
45008;DHT22;30743;52.008;5.644;2022-10-28T11:19:30;28.10;99.90
45008;DHT22;30743;52.008;5.644;2022-10-28T11:27:45;27.40;99.90
45008;DHT22;30743;52.008;5.644;2022-10-28T11:30:11;26.90;99.90
45008;DHT22;30743;52.008;5.644;2022-10-28T11:33:07;26.90;99.90
45008;DHT22;30743;52.008;5.644;2022-10-28T11:38:25;26.20;99.90
45008;DHT22;30743;52.008;5.644;2022-10-28T11:43:55;26.20;99.90
45008;DHT22;30743;52.008;5.644;2022-10-28T11:49:13;26.10;99.90
45008;DHT22;30743;52.008;5.644;2022-10-28T11:51:58;26.10;99.90
45008;DHT22;30743;52.008;5.644;2022-10-28T11:54:39;26.10;99.90
45008;DHT22;30743;52.008;5.644;2022-10-28T11:57:16;26.40;99.90
45008;DHT22;30743;52.008;5.644;2022-10-28T12:00:04;26.80;99.90
45008;DHT22;30743;52.008;5.644;2022-10-28T12:03:00;27.30;99.90
45008;DHT22;30743;52.008;5.644;2022-10-28T12:05:42;27.30;99.90
45008;DHT22;30743;52.008;5.644;2022-10-28T12:11:38;27.20;99.90
45008;DHT22;30743;52.008;5.644;2022-10-28T12:14:37;27.20;99.90
45008;DHT22;30743;52.008;5.644;2022-10-28T12:17:15;26.90;99.90
45008;DHT22;30743;52.008;5.644;2022-10-28T12:22:35;26.80;99.90
45008;DHT22;30743;52.008;5.644;2022-10-28T12:25:07;26.50;99.90
45008;DHT22;30743;52.008;5.644;2022-10-28T12:27:36;26.50;99.90
45008;DHT22;30743;52.008;5.644;2022-10-28T12:30:26;26.50;99.90
45008;DHT22;30743;52.008;5.644;2022-10-28T12:32:55;26.70;99.90
45008;DHT22;30743;52.008;5.644;2022-10-28T12:35:26;26.70;99.90
45008;DHT22;30743;52.008;5.644;2022-10-28T12:38:33;26.70;99.90
45008;DHT22;30743;52.008;5.644;2022-10-28T12:41:16;26.80;99.90
45008;DHT22;30743;52.008;5.644;2022-10-28T12:43:45;26.70;99.90
45008;DHT22;30743;52.008;5.644;2022-10-28T12:49:04;26.30;99.90
45008;DHT22;30743;52.008;5.644;2022-10-28T12:51:36;26.10;99.90
45008;DHT22;30743;52.008;5.644;2022-10-28T12:54:20;26.00;99.90
45008;DHT22;30743;52.008;5.644;2022-10-28T12:56:53;25.70;99.90
45008;DHT22;30743;52.008;5.644;2022-10-28T12:59:40;25.70;99.90
45008;DHT22;30743;52.008;5.644;2022-10-28T13:02:20;25.70;99.90
45008;DHT22;30743;52.008;5.644;2022-10-28T13:04:48;25.70;99.90
45008;DHT22;30743;52.008;5.644;2022-10-28T13:18:37;25.10;99.90
45008;DHT22;30743;52.008;5.644;2022-10-28T13:24:05;25.00;99.90
45008;DHT22;30743;52.008;5.644;2022-10-28T13:26:41;25.10;99.90
45008;DHT22;30743;52.008;5.644;2022-10-28T13:29:20;25.00;99.90
45008;DHT22;30743;52.008;5.644;2022-10-28T13:31:47;24.70;99.90
45008;DHT22;30743;52.008;5.644;2022-10-28T13:34:15;24.80;99.90
45008;DHT22;30743;52.008;5.644;2022-10-28T13:36:43;24.70;99.90
45008;DHT22;30743;52.008;5.644;2022-10-28T13:44:56;25.00;99.90
45008;DHT22;30743;52.008;5.644;2022-10-28T13:47:26;25.00;99.90
45008;DHT22;30743;52.008;5.644;2022-10-28T13:52:30;25.10;99.90
45008;DHT22;30743;52.008;5.644;2022-10-28T13:54:56;25.00;99.90
45008;DHT22;30743;52.008;5.644;2022-10-28T13:57:36;25.10;99.90
45008;DHT22;30743;52.008;5.644;2022-10-28T14:00:08;25.20;99.90
45008;DHT22;30743;52.008;5.644;2022-10-28T14:03:01;25.30;99.90
45008;DHT22;30743;52.008;5.644;2022-10-28T14:08:15;25.40;99.90
45008;DHT22;30743;52.008;5.644;2022-10-28T14:10:52;25.40;99.90
45008;DHT22;30743;52.008;5.644;2022-10-28T14:13:20;25.40;99.90
45008;DHT22;30743;52.008;5.644;2022-10-28T14:15:47;25.50;99.90
45008;DHT22;30743;52.008;5.644;2022-10-28T14:45:00;26.10;99.90
45008;DHT22;30743;52.008;5.644;2022-10-28T14:50:40;25.90;99.90
45008;DHT22;30743;52.008;5.644;2022-10-28T14:55:49;25.90;99.90
45008;DHT22;30743;52.008;5.644;2022-10-28T14:58:23;25.20;99.90
45008;DHT22;30743;52.008;5.644;2022-10-28T15:03:24;24.90;99.90
45008;DHT22;30743;52.008;5.644;2022-10-28T15:05:51;24.90;99.90
45008;DHT22;30743;52.008;5.644;2022-10-28T15:08:17;25.00;99.90
45008;DHT22;30743;52.008;5.644;2022-10-28T15:10:47;25.00;99.90
45008;DHT22;30743;52.008;5.644;2022-10-28T15:13:15;24.90;99.90
45008;DHT22;30743;52.008;5.644;2022-10-28T15:15:50;24.90;99.90
45008;DHT22;30743;52.008;5.644;2022-10-28T15:18:24;25.10;99.90
45008;DHT22;30743;52.008;5.644;2022-10-28T15:21:06;25.10;99.90
45008;DHT22;30743;52.008;5.644;2022-10-28T15:23:33;24.60;99.90
45008;DHT22;30743;52.008;5.644;2022-10-28T15:28:31;24.70;99.90
45008;DHT22;30743;52.008;5.644;2022-10-28T15:30:56;24.30;99.90
45008;DHT22;30743;52.008;5.644;2022-10-28T15:33:38;24.50;99.90
45008;DHT22;30743;52.008;5.644;2022-10-28T15:36:12;24.50;99.90
45008;DHT22;30743;52.008;5.644;2022-10-28T15:38:43;24.60;99.90
45008;DHT22;30743;52.008;5.644;2022-10-28T15:41:39;24.40;99.90
45008;DHT22;30743;52.008;5.644;2022-10-28T15:46:48;24.50;99.90
45008;DHT22;30743;52.008;5.644;2022-10-28T15:49:34;24.50;99.90
45008;DHT22;30743;52.008;5.644;2022-10-28T15:54:54;24.40;99.90
45008;DHT22;30743;52.008;5.644;2022-10-28T15:57:24;24.40;99.90
45008;DHT22;30743;52.008;5.644;2022-10-28T16:00:16;24.40;99.90
45008;DHT22;30743;52.008;5.644;2022-10-28T16:02:42;24.50;99.90
45008;DHT22;30743;52.008;5.644;2022-10-28T16:08:02;24.60;99.90
45008;DHT22;30743;52.008;5.644;2022-10-28T16:10:33;24.60;99.90
45008;DHT22;30743;52.008;5.644;2022-10-28T16:13:01;24.60;99.90
45008;DHT22;30743;52.008;5.644;2022-10-28T16:15:27;24.60;99.90
45008;DHT22;30743;52.008;5.644;2022-10-28T16:17:53;24.60;99.90
45008;DHT22;30743;52.008;5.644;2022-10-28T16:20:26;24.50;99.90
45008;DHT22;30743;52.008;5.644;2022-10-28T16:22:53;24.70;99.90
45008;DHT22;30743;52.008;5.644;2022-10-28T16:25:20;24.70;99.90
45008;DHT22;30743;52.008;5.644;2022-10-28T16:27:47;24.70;99.90
45008;DHT22;30743;52.008;5.644;2022-10-28T16:30:13;24.70;99.90
45008;DHT22;30743;52.008;5.644;2022-10-28T16:32:42;24.80;99.90
45008;DHT22;30743;52.008;5.644;2022-10-28T16:35:12;24.80;99.90
45008;DHT22;30743;52.008;5.644;2022-10-28T16:37:38;24.70;99.90
45008;DHT22;30743;52.008;5.644;2022-10-28T16:40:05;24.60;99.90
45008;DHT22;30743;52.008;5.644;2022-10-28T16:42:31;24.70;99.90
45008;DHT22;30743;52.008;5.644;2022-10-28T16:44:56;24.60;99.90
45008;DHT22;30743;52.008;5.644;2022-10-28T16:47:24;24.60;99.90
45008;DHT22;30743;52.008;5.644;2022-10-28T16:49:50;24.60;99.90
45008;DHT22;30743;52.008;5.644;2022-10-28T16:52:21;24.50;99.90
45008;DHT22;30743;52.008;5.644;2022-10-28T16:54:48;24.50;99.90
45008;DHT22;30743;52.008;5.644;2022-10-28T16:57:14;24.50;99.90
45008;DHT22;30743;52.008;5.644;2022-10-28T16:59:40;24.50;99.90
45008;DHT22;30743;52.008;5.644;2022-10-28T17:02:21;24.40;99.90
45008;DHT22;30743;52.008;5.644;2022-10-28T17:04:48;24.40;99.90
45008;DHT22;30743;52.008;5.644;2022-10-28T17:07:13;24.40;99.90
45008;DHT22;30743;52.008;5.644;2022-10-28T17:09:41;24.30;99.90
45008;DHT22;30743;52.008;5.644;2022-10-28T17:12:10;24.30;99.90
45008;DHT22;30743;52.008;5.644;2022-10-28T17:14:37;24.30;99.90
45008;DHT22;30743;52.008;5.644;2022-10-28T17:17:02;24.30;99.90
45008;DHT22;30743;52.008;5.644;2022-10-28T17:19:28;24.20;99.90
45008;DHT22;30743;52.008;5.644;2022-10-28T17:21:53;24.20;99.90
45008;DHT22;30743;52.008;5.644;2022-10-28T17:24:19;24.10;99.90
45008;DHT22;30743;52.008;5.644;2022-10-28T17:26:46;24.10;99.90
45008;DHT22;30743;52.008;5.644;2022-10-28T17:29:12;24.10;99.90
45008;DHT22;30743;52.008;5.644;2022-10-28T17:31:37;24.10;99.90
45008;DHT22;30743;52.008;5.644;2022-10-28T17:34:03;24.00;99.90
45008;DHT22;30743;52.008;5.644;2022-10-28T17:36:28;24.00;99.90
45008;DHT22;30743;52.008;5.644;2022-10-28T17:38:54;23.90;99.90
45008;DHT22;30743;52.008;5.644;2022-10-28T17:41:19;23.90;99.90
45008;DHT22;30743;52.008;5.644;2022-10-28T17:43:45;24.00;99.90
45008;DHT22;30743;52.008;5.644;2022-10-28T17:46:10;23.90;99.90
45008;DHT22;30743;52.008;5.644;2022-10-28T17:48:36;23.90;99.90
45008;DHT22;30743;52.008;5.644;2022-10-28T17:51:04;23.90;99.90
45008;DHT22;30743;52.008;5.644;2022-10-28T17:53:29;23.80;99.90
45008;DHT22;30743;52.008;5.644;2022-10-28T17:55:58;23.80;99.90
45008;DHT22;30743;52.008;5.644;2022-10-28T17:58:24;23.80;99.90
45008;DHT22;30743;52.008;5.644;2022-10-28T18:00:57;23.80;99.90
45008;DHT22;30743;52.008;5.644;2022-10-28T18:03:23;23.70;99.90